Mitsukawa Maru — JD2495 — position and weather

sailwx.info

Track history (hours):
 
Tides and Currents Weather Stations Pressure Air Temp Water Temp Dewpoint Dewpoint Depression Visibility Wind Speed Wind Dir Waves Ship Positions

Mitsukawa Maru

Last reported at 2016-Apr-23 22:05 UTC. Time now 2016-Apr-30 20:42 UTC.
Position N 34°35' E 134°53'.

Length 105 m; draft 6.7 m.

Type: Cargo ship. MMSI: 431000326.

Date/timePositionNaut miles runAvg speedWind from/ knotsBaromVisibWave heightAir tempDewpointWater temp
2016-Apr-23 22:05N 34°35' E 134°53'711.8
2016-Apr-23 21:32N 34°37' E 135°01'9 9.0
2016-Apr-23 20:33N 34°29' E 135°03'1211.5
2016-Apr-23 19:32N 34°17' E 134°60'1110.7
2016-Apr-23 18:33N 34°07' E 134°56'7 0.3
2016-Apr-22 17:16N 34°01' E 134°56'912.1
2016-Apr-22 16:33N 34°09' E 134°57'1414.0
2016-Apr-22 15:33N 34°23' E 134°60'1313.1
2016-Apr-22 14:33N 34°36' E 135°02'1212.1
2016-Apr-22 13:32N 34°33' E 134°48'  
Track history (hours):
 
Tides and Currents Weather Stations Pressure Air Temp Water Temp Dewpoint Dewpoint Depression Visibility Wind Speed Wind Dir Waves Ship Positions

Mitsukawa Maru

Last reported at 2016-Apr-23 22:05 UTC. Time now 2016-Apr-30 20:42 UTC.
Position N 34°35' E 134°53'.

Length 105 m; draft 6.7 m.

Type: Cargo ship. MMSI: 431000326.

Date/timePositionNaut miles runAvg speedWind from/ knotsBaromVisibWave heightAir tempDewpointWater temp
2016-Apr-23 22:05N 34°35' E 134°53'711.8
2016-Apr-23 21:32N 34°37' E 135°01'9 9.0
2016-Apr-23 20:33N 34°29' E 135°03'1211.5
2016-Apr-23 19:32N 34°17' E 134°60'1110.7
2016-Apr-23 18:33N 34°07' E 134°56'7 0.3
2016-Apr-22 17:16N 34°01' E 134°56'912.1
2016-Apr-22 16:33N 34°09' E 134°57'1414.0
2016-Apr-22 15:33N 34°23' E 134°60'1313.1
2016-Apr-22 14:33N 34°36' E 135°02'1212.1
2016-Apr-22 13:32N 34°33' E 134°48'  

Dump ship's entire track history